createdAt,value
2023-03-22T00:04:33.348Z,1001.9
2023-03-22T00:09:39.441Z,1001.7
2023-03-22T00:14:45.674Z,1001.7
2023-03-22T00:19:51.655Z,1001.7
2023-03-22T00:24:57.864Z,1001.6
2023-03-22T00:30:02.861Z,1001.5
2023-03-22T00:35:08.935Z,1001.5
2023-03-22T00:40:15.030Z,1001.6
2023-03-22T00:45:21.148Z,1001.6
2023-03-22T00:50:27.235Z,1001.5
2023-03-22T00:55:33.348Z,1001.6
2023-03-22T01:00:39.593Z,1001.5
2023-03-22T01:05:45.518Z,1001.6
2023-03-22T01:10:51.609Z,1001.5
2023-03-22T01:15:57.844Z,1001.4
2023-03-22T01:21:03.895Z,1001.4
2023-03-22T01:26:09.944Z,1001.3
2023-03-22T01:31:16.029Z,1001.4
2023-03-22T01:36:21.245Z,1001.3
2023-03-22T01:41:27.220Z,1001.4
2023-03-22T01:51:39.413Z,1001.2
2023-03-22T01:56:45.494Z,1001.1
2023-03-22T02:01:51.612Z,1001.2
2023-03-22T02:06:57.682Z,1001.1
2023-03-22T02:12:03.755Z,1001.1
2023-03-22T02:17:09.934Z,1001
2023-03-22T02:22:16.101Z,1000.9
2023-03-22T02:27:22.064Z,1001
2023-03-22T02:32:28.155Z,1001
2023-03-22T02:37:34.258Z,1001
2023-03-22T02:42:39.506Z,1001
2023-03-22T02:47:45.464Z,1001
2023-03-22T02:52:51.631Z,1001
2023-03-22T02:57:57.665Z,1001.1
2023-03-22T03:03:03.755Z,1001
2023-03-22T03:08:09.873Z,1000.9
2023-03-22T03:13:16.001Z,1000.9
2023-03-22T03:18:22.057Z,1000.9
2023-03-22T03:23:28.155Z,1000.9
2023-03-22T03:28:34.225Z,1000.9
2023-03-22T03:33:40.334Z,1000.9
2023-03-22T03:38:46.513Z,1000.9
2023-03-22T03:43:52.573Z,1000.9
2023-03-22T03:48:57.632Z,1000.8
2023-03-22T03:54:03.794Z,1000.8
2023-03-22T03:59:09.823Z,1000.8
2023-03-22T04:04:15.944Z,1000.8
2023-03-22T04:09:22.021Z,1000.8
2023-03-22T04:14:28.219Z,1000.8
2023-03-22T04:19:33.277Z,1000.8
2023-03-22T04:24:39.314Z,1000.7
2023-03-22T04:29:45.429Z,1000.7
2023-03-22T04:34:51.510Z,1000.7
2023-03-22T04:39:57.616Z,1000.6
2023-03-22T04:45:03.708Z,1000.6
2023-03-22T04:50:09.816Z,1000.6
2023-03-22T04:55:15.894Z,1000.6
2023-03-22T05:00:21.992Z,1000.5
2023-03-22T05:05:28.099Z,1000.5
2023-03-22T05:10:34.201Z,1000.4
2023-03-22T05:15:40.296Z,1000.4
2023-03-22T05:20:46.522Z,1000.3
2023-03-22T05:25:51.634Z,1000.4
2023-03-22T05:30:57.577Z,1000.3
2023-03-22T05:36:03.700Z,1000.4
2023-03-22T05:41:09.806Z,1000.4
2023-03-22T05:46:16.016Z,1000.4
2023-03-22T05:51:22.028Z,1000.4
2023-03-22T05:56:28.072Z,1000.4
2023-03-22T06:01:34.169Z,1000.3
2023-03-22T06:06:40.275Z,1000.4
2023-03-22T06:11:46.361Z,1000.6
2023-03-22T06:16:52.464Z,1000.5
2023-03-22T06:21:58.554Z,1000.6
2023-03-22T06:27:04.667Z,1000.6
2023-03-22T06:32:09.751Z,1000.6
2023-03-22T06:37:15.864Z,1000.8
2023-03-22T06:42:21.951Z,1000.7
2023-03-22T06:47:28.058Z,1000.7
2023-03-22T06:52:34.133Z,1000.7
2023-03-22T06:57:40.228Z,1000.7
2023-03-22T07:02:46.374Z,1000.6
2023-03-22T07:07:52.425Z,1000.7
2023-03-22T07:12:58.513Z,1000.6
2023-03-22T07:18:04.671Z,1000.6
2023-03-22T07:23:10.711Z,1000.7
2023-03-22T07:28:16.795Z,1000.6
2023-03-22T07:33:22.899Z,1000.5
2023-03-22T07:38:28.016Z,1000.5
2023-03-22T07:43:34.120Z,1000.6
2023-03-22T07:48:40.212Z,1000.5
2023-03-22T07:53:46.312Z,1000.4
2023-03-22T07:58:52.406Z,1000.4
2023-03-22T08:03:58.543Z,1000.4
2023-03-22T08:09:04.586Z,1000.3
2023-03-22T08:14:10.704Z,1000.3
2023-03-22T08:19:16.873Z,1000.4
2023-03-22T08:24:22.879Z,1000.3
2023-03-22T08:29:28.998Z,1000.3
2023-03-22T08:34:35.172Z,1000.4
2023-03-22T08:39:41.228Z,1000.3
2023-03-22T08:44:46.285Z,1000.2
2023-03-22T08:49:52.683Z,1000.2
2023-03-22T08:54:58.517Z,1000.1
2023-03-22T09:00:04.578Z,1000
2023-03-22T09:05:10.734Z,999.9
2023-03-22T09:10:16.735Z,1000
2023-03-22T09:15:22.864Z,999.8
2023-03-22T09:20:28.964Z,999.8
2023-03-22T09:25:35.056Z,999.8
2023-03-22T09:30:41.118Z,999.6
2023-03-22T09:35:47.309Z,999.6
2023-03-22T09:40:53.318Z,999.6
2023-03-22T09:45:59.406Z,999.6
2023-03-22T09:51:04.534Z,999.6
2023-03-22T09:56:10.803Z,999.3
2023-03-22T10:01:16.837Z,999.4
2023-03-22T10:06:22.814Z,999.3
2023-03-22T10:11:28.963Z,999.2
2023-03-22T10:16:35.083Z,999.1
2023-03-22T10:21:41.185Z,999.2
2023-03-22T10:26:47.358Z,999
2023-03-22T10:31:53.376Z,999
2023-03-22T10:36:59.562Z,998.8
2023-03-22T10:42:05.494Z,998.8
2023-03-22T10:47:11.709Z,998.9
2023-03-22T10:52:17.728Z,998.8
2023-03-22T10:57:22.917Z,998.9
2023-03-22T11:02:29.003Z,998.9
2023-03-22T11:07:35.023Z,998.7
2023-03-22T11:12:41.080Z,998.6
2023-03-22T11:17:47.296Z,998.6
2023-03-22T11:22:53.241Z,998.5
2023-03-22T11:27:59.501Z,998.4
2023-03-22T11:33:05.631Z,998.4
2023-03-22T11:38:11.696Z,998.3
2023-03-22T11:43:17.838Z,998.4
2023-03-22T11:48:23.802Z,998.3
2023-03-22T11:53:29.813Z,998.2
2023-03-22T11:58:36.092Z,998.2
2023-03-22T12:03:41.068Z,998
2023-03-22T12:08:47.454Z,997.9
2023-03-22T12:13:53.404Z,998
2023-03-22T12:18:59.276Z,997.9
2023-03-22T12:24:05.394Z,997.8
2023-03-22T12:29:11.471Z,997.8
2023-03-22T12:39:23.656Z,997.7
2023-03-22T12:44:29.749Z,997.6
2023-03-22T12:49:35.852Z,997.7
2023-03-22T12:54:41.935Z,997.6
2023-03-22T12:59:48.036Z,997.6
2023-03-22T13:04:54.129Z,997.6
2023-03-22T13:09:59.243Z,997.7
2023-03-22T13:15:05.332Z,997.6
2023-03-22T13:20:11.457Z,997.5
2023-03-22T13:25:17.527Z,997.6
2023-03-22T13:30:23.625Z,997.4
2023-03-22T13:35:29.705Z,997.4
2023-03-22T13:40:35.801Z,997.3
2023-03-22T13:45:41.908Z,997.3
2023-03-22T13:50:48.020Z,997.4
2023-03-22T13:55:54.097Z,997.3
2023-03-22T14:01:00.208Z,997.2
2023-03-22T14:06:06.271Z,997.2
2023-03-22T14:11:12.369Z,997.1
2023-03-22T14:16:17.472Z,997.1
2023-03-22T14:21:23.583Z,997.2
2023-03-22T14:52:00.287Z,996.9
2023-03-22T14:57:06.229Z,996.9
2023-03-22T15:02:12.314Z,996.9
2023-03-22T15:07:18.589Z,997
2023-03-22T15:12:24.499Z,997
2023-03-22T15:17:30.743Z,996.9
2023-03-22T15:22:35.875Z,997
2023-03-22T15:27:41.985Z,996.9
2023-03-22T15:32:48.051Z,996.9
2023-03-22T15:37:54.226Z,996.8
2023-03-22T15:43:00.218Z,996.8
2023-03-22T15:48:06.389Z,996.8
2023-03-22T15:53:12.277Z,996.8
2023-03-22T15:58:18.534Z,996.8
2023-03-22T16:03:24.623Z,996.8
2023-03-22T16:08:30.713Z,996.9
2023-03-22T16:13:36.820Z,997
2023-03-22T16:18:42.744Z,997
2023-03-22T16:23:49.049Z,997.1
2023-03-22T16:28:53.948Z,997.1
2023-03-22T16:34:00.266Z,997.2
2023-03-22T16:39:06.269Z,997.1
2023-03-22T16:44:12.446Z,997.2
2023-03-22T16:49:18.488Z,997.1
2023-03-22T16:54:24.398Z,997.2
2023-03-22T16:59:30.656Z,997.3
2023-03-22T17:04:36.775Z,997.2
2023-03-22T17:09:42.875Z,997.3
2023-03-22T17:14:48.975Z,997.3
2023-03-22T17:19:55.108Z,997.3
2023-03-22T17:25:01.173Z,997.4
2023-03-22T17:30:07.081Z,997.4
2023-03-22T17:35:12.337Z,997.4
2023-03-22T17:40:18.461Z,997.5
2023-03-22T17:45:24.527Z,997.5
2023-03-22T17:50:30.473Z,997.6
2023-03-22T17:55:36.758Z,997.6
2023-03-22T18:00:42.722Z,997.6
2023-03-22T18:05:48.922Z,997.6
2023-03-22T18:10:55.068Z,997.6
2023-03-22T18:16:01.184Z,997.5
2023-03-22T18:21:07.215Z,997.5
2023-03-22T18:26:13.338Z,997.4
2023-03-22T18:31:19.278Z,997.4
2023-03-22T18:36:25.336Z,997.3
2023-03-22T18:41:30.619Z,997.2
2023-03-22T18:46:36.598Z,997.2
2023-03-22T18:51:42.652Z,997.1
2023-03-22T18:56:48.925Z,997.1
2023-03-22T19:01:54.832Z,997.1
2023-03-22T19:07:01.129Z,997.2
2023-03-22T19:12:07.225Z,997
2023-03-22T19:17:13.267Z,997.1
2023-03-22T19:22:19.424Z,997.1
2023-03-22T19:27:25.465Z,997.1
2023-03-22T19:32:31.532Z,997.1
2023-03-22T19:37:37.709Z,997.1
2023-03-22T19:42:43.808Z,997
2023-03-22T19:47:48.845Z,996.9
2023-03-22T19:52:55.002Z,996.8
2023-03-22T19:58:01.079Z,996.9
2023-03-22T20:03:07.172Z,996.9
2023-03-22T20:08:13.124Z,996.9
2023-03-22T20:13:19.367Z,996.9
2023-03-22T20:18:25.423Z,996.9
2023-03-22T20:23:31.508Z,996.9
2023-03-22T20:28:37.694Z,996.8
2023-03-22T20:33:43.772Z,996.8
2023-03-22T20:38:49.895Z,996.8
2023-03-22T20:49:02.076Z,996.7
2023-03-22T20:54:07.250Z,996.7
2023-03-22T20:59:13.246Z,996.5
2023-03-22T21:04:19.351Z,996.5
2023-03-22T21:09:25.273Z,996.4
2023-03-22T21:14:31.524Z,996.4
2023-03-22T21:19:37.622Z,996.4
2023-03-22T21:24:42.751Z,996.4
2023-03-22T21:29:48.830Z,996.5
2023-03-22T21:34:54.967Z,996.5
2023-03-22T21:40:01.150Z,996.5
2023-03-22T21:45:06.970Z,996.4
2023-03-22T21:50:13.237Z,996.3
2023-03-22T21:55:19.166Z,996.4
2023-03-22T22:00:25.385Z,996.3
2023-03-22T22:05:31.352Z,996.3
2023-03-22T22:10:37.640Z,996.3
2023-03-22T22:15:43.660Z,996.2
2023-03-22T22:20:49.862Z,996.2
2023-03-22T22:25:55.955Z,996.2
2023-03-22T22:31:00.863Z,996.1
2023-03-22T22:36:07.033Z,996
2023-03-22T22:41:13.194Z,996
2023-03-22T22:46:19.174Z,996
2023-03-22T22:51:25.296Z,996
2023-03-22T22:56:31.426Z,996
2023-03-22T23:01:37.493Z,996
2023-03-22T23:06:43.537Z,995.9
2023-03-22T23:11:49.674Z,996
2023-03-22T23:16:55.752Z,995.9
2023-03-22T23:22:01.825Z,995.9
2023-03-22T23:27:08.081Z,995.8
2023-03-22T23:32:14.089Z,995.8
2023-03-22T23:37:19.101Z,995.7
2023-03-22T23:42:25.366Z,995.7
2023-03-22T23:47:31.380Z,995.7
2023-03-22T23:52:37.519Z,995.6
2023-03-22T23:57:43.592Z,995.6
